Sardis, South Carolina
Current Conditions -  °F | °C
As of 6:53 PM on Saturday 22 Nov 2014 (Local Time) from KFLO Reporting Station
Clear Clear  
Wind Chill: 48°   Ceiling: Unl
Heat Index: 48°   Visibility: 10mi
Dew Point: 32°   Wind: 0mph
Humidity: 54%   Direction: NA
Pressure: 30.35"   Gusts: NA
Location:  34.07°N, 79.933°W
Report Text: KFLO 222353Z 00000KT 10SM CLR 09/00 A3035 RMK AO2 SLP278 T00890000 10161 20078 56009
Loading
Personal Weather Stations






























Interactive Weather Map New forecast layout! Learn more

10-Day Weather Forecast

Advertisements
Track Severe Weather on mobile